Strasburg, ND (58573)

10:37 PM CST on November 26, 2014 (GMT -0600)
Linton Municipal Airport | Change Station
CLOSE
Current Station
Airport
Location: Linton Municipal Airport,
Elevation: 1778 ft
Nearby Weather Stations

Elev 1778 ft 46.22 °N, 100.25 °W | Updated 22 minutes ago

Clear
Clear
-9 °F
Feels Like -23 °F
N
6
Wind Variable Wind from ESE

Today
High -- | Low -- °F
--% Chance of Precip.
Yesterday
High -- | Low -- °F
Precip. -- in
7:57 AM 4:58 PM
Waxing Crescent, 25% visible
Pressure 30.45 in
Visibility 10.0 miles
Clouds Clear
Windchill -23 °F
Dew Point -13 °F
Humidity 84%
Rainfall 0.31 in
Snow Depth Not available.
UV 0 out of 12
Pollen .10 out of 12
Air Quality Not available.
Flu Activity Not available.
METAR K7L2 270415Z AUTO 11005KT 10SM CLR M23/M25 A3045 RMK AO2

More Conditions Fewer Conditions

Pressure 30.45 in
Visibility 10.0 miles
Clouds Clear
Windchill -23 °F
Dew Point -13 °F
Humidity 84%
Rainfall 0.31 in
Snow Depth Not available.
UV 0 out of 12
Pollen .10 out of 12
Air Quality Not available.
Flu Activity Not available.
METAR K7L2 270415Z AUTO 11005KT 10SM CLR M23/M25 A3045 RMK AO2

More Conditions Fewer Conditions

10-Day Weather Forecast

Almanac

Astronomy

Nov. 26, 2014 Rise Set
Actual Time
Civil Twilight
Nautical Twilight
Astronomical Twilight
Moon
Length of Visible Light
Length of Day
Tomorrow will be .
, % of the Moon is Illuminated

Today's Extremes

State Highs State Lows

Community

WunderPhotos

Upload Photos

1,773,959 photos uploaded!

WunderBlogs® & News

Nearby

Air Quality

  Air Quality AQ Index Pollutant
Not available.

Snow Depth

Station Depth Elevation

Earthquake Activity

City Distance Mag. Time & Date
Minimum magnitude displayed is 2.5.

Coastal Water Temperatures

Place Temperature

Nearby Weather Stations